KTCL/TCL METAR and TAF weather

Enter ICAO airport designator
Station Type Date Time Source
KTCL METAR 2019/08/22 03:53 UTC NOAA

KTCL 220353Z AUTO 00000KT 10SM CLR 24/23 A3006 RMK AO2 SLP176 T02440228


Station Type Date Time Source
KTCL Decoded METAR 2019/08/22 03:53 UTC NOAA

Station name not available
Aug 21, 2019 - 11:53 PM EDT / 2019.08.22 0353 UTC
Wind: Calm:0
Visibility: 10 mile(s):0
Sky conditions: clear
Temperature: 75.9 F (24.4 C)
Dew Point: 73.0 F (22.8 C)
Relative Humidity: 90%
Pressure (altimeter): 30.06 in. Hg (1017 hPa)
ob: KTCL 220353Z AUTO 00000KT 10SM CLR 24/23 A3006 RMK AO2 SLP176 T02440228
cycle: 4

Station Type Date Time Source
KTCL TAF 2019/08/21 23:42 UTC NOAA

TAF
AMD KTCL 212241Z 2123/2218 18006KT P6SM VCTS BKN050CB
TEMPO 2123/2124 2SM TSRA BKN035CB
FM220100 19003KT P6SM BKN050
FM221000 18002KT 4SM BR SCT030
FM221400 21004KT P6SM FEW050

Example: see airport list